createdAt,value
2019-05-02T00:01:28.083Z,96443.91
2019-05-02T00:03:58.651Z,96442.23
2019-05-02T00:06:28.440Z,96440.98
2019-05-02T00:08:57.907Z,96439.08
2019-05-02T00:11:29.088Z,96432.84
2019-05-02T00:13:58.835Z,96435.35
2019-05-02T00:16:29.769Z,96431.41
2019-05-02T00:18:59.204Z,96433.62
2019-05-02T00:21:32.928Z,96433.21
2019-05-02T00:24:03.050Z,96426.67
2019-05-02T00:26:31.233Z,96428.34
2019-05-02T00:29:00.637Z,96432.28
2019-05-02T00:31:30.063Z,96423.31
2019-05-02T00:33:59.522Z,96425.39
2019-05-02T00:36:28.898Z,96425.83
2019-05-02T00:38:58.356Z,96419.86
2019-05-02T00:41:27.681Z,96414.30
2019-05-02T00:43:57.132Z,96413.43
2019-05-02T00:46:30.271Z,96411.55
2019-05-02T00:49:01.794Z,96414.67
2019-05-02T00:51:30.645Z,96409.93
2019-05-02T00:54:00.111Z,96408.97
2019-05-02T00:56:29.584Z,96405.38
2019-05-02T00:59:02.294Z,96401.93
2019-05-02T01:02:05.329Z,96404.50
2019-05-02T01:04:37.299Z,96395.19
2019-05-02T01:07:07.508Z,96396.71
2019-05-02T01:09:36.856Z,96390.55
2019-05-02T01:12:08.466Z,96396.13
2019-05-02T01:14:37.498Z,96394.63
2019-05-02T01:17:06.936Z,96390.72
2019-05-02T01:19:36.188Z,96383.28
2019-05-02T01:22:10.642Z,96383.73
2019-05-02T01:24:41.494Z,96382.09
2019-05-02T01:27:17.562Z,96376.77
2019-05-02T01:30:08.558Z,96383.97
2019-05-02T01:32:47.582Z,96381.14
2019-05-02T01:35:38.696Z,96385.73
2019-05-02T01:38:15.916Z,96379.61
2019-05-02T01:40:48.173Z,96383.39
2019-05-02T01:43:36.316Z,96384.03
2019-05-02T01:46:05.897Z,96387.57
2019-05-02T01:48:35.349Z,96383.88
2019-05-02T01:51:10.466Z,96387.86
2019-05-02T01:53:36.120Z,96377.90
2019-05-02T01:56:05.709Z,96379.27
2019-05-02T01:58:35.222Z,96378.66
2019-05-02T02:01:05.603Z,96375.80
2019-05-02T02:03:35.292Z,96371.32
2019-05-02T02:06:08.134Z,96367.33
2019-05-02T02:08:35.959Z,96375.21
2019-05-02T02:11:05.326Z,96369.53
2019-05-02T02:13:36.515Z,96367.03
2019-05-02T02:16:06.145Z,96369.20
2019-05-02T02:18:39.435Z,96369.04
2019-05-02T02:21:43.163Z,96368.55
2019-05-02T02:24:34.944Z,96365.09
2019-05-02T02:27:04.450Z,96367.06
2019-05-02T02:29:33.873Z,96357.13
2019-05-02T02:32:03.431Z,96356.73
2019-05-02T02:34:32.726Z,96352.92
2019-05-02T02:37:05.296Z,96350.55
2019-05-02T02:39:33.260Z,96353.09
2019-05-02T02:42:02.702Z,96349.67
2019-05-02T02:44:59.993Z,96346.05
2019-05-02T02:47:29.623Z,96351.66
2019-05-02T02:50:02.286Z,96341.02
2019-05-02T02:52:30.265Z,96346.11
2019-05-02T02:54:59.711Z,96348.02
2019-05-02T02:57:29.268Z,96345.25
2019-05-02T03:00:06.715Z,96344.52
2019-05-02T03:02:29.886Z,96340.55
2019-05-02T03:04:59.360Z,96337.66
2019-05-02T03:07:29.084Z,96333.07
2019-05-02T03:09:59.725Z,96331.43
2019-05-02T03:13:00.870Z,96329.26
2019-05-02T03:15:32.554Z,96332.66
2019-05-02T03:18:02.132Z,96325.17
2019-05-02T03:20:39.880Z,96323.94
2019-05-02T03:23:03.416Z,96323.00
2019-05-02T03:25:49.824Z,96319.36
2019-05-02T03:28:04.142Z,96318.77
2019-05-02T03:30:37.406Z,96320.63
2019-05-02T03:33:10.929Z,96317.56
2019-05-02T03:35:43.079Z,96318.64
2019-05-02T03:38:07.213Z,96319.59
2019-05-02T03:40:38.924Z,96319.25
2019-05-02T03:43:08.165Z,96313.92
2019-05-02T03:45:40.063Z,96321.16
2019-05-02T03:48:08.521Z,96317.55
2019-05-02T03:50:38.448Z,96319.71
2019-05-02T03:53:07.751Z,96322.61
2019-05-02T03:55:37.212Z,96322.17
2019-05-02T03:58:13.301Z,96321.53
2019-05-02T04:00:37.746Z,96327.41
2019-05-02T04:03:07.317Z,96318.98
2019-05-02T04:05:40.521Z,96323.08
2019-05-02T04:08:19.962Z,96313.19
2019-05-02T04:11:23.288Z,96311.57
2019-05-02T04:13:54.317Z,96323.31
2019-05-02T04:16:25.945Z,96320.78
2019-05-02T04:18:58.403Z,96319.91
2019-05-02T04:21:27.984Z,96309.30
2019-05-02T04:24:06.745Z,96316.70
2019-05-02T04:26:29.274Z,96315.08
2019-05-02T04:28:58.826Z,96320.71
2019-05-02T04:31:31.389Z,96317.36
2019-05-02T04:33:59.173Z,96321.64
2019-05-02T04:36:28.511Z,96315.08
2019-05-02T04:38:59.529Z,96321.63
2019-05-02T04:41:31.723Z,96321.63
2019-05-02T04:44:01.508Z,96317.11
2019-05-02T04:46:31.485Z,96317.83
2019-05-02T04:49:01.013Z,96319.63
2019-05-02T04:51:31.911Z,96311.89
2019-05-02T04:54:01.887Z,96320.66
2019-05-02T04:56:31.794Z,96320.25
2019-05-02T04:59:02.266Z,96321.89
2019-05-02T05:01:41.933Z,96319.95
2019-05-02T05:04:03.501Z,96320.41
2019-05-02T05:06:32.850Z,96327.84
2019-05-02T05:09:03.961Z,96328.15
2019-05-02T05:11:33.269Z,96327.84
2019-05-02T05:14:02.556Z,96332.42
2019-05-02T05:16:31.907Z,96326.81
2019-05-02T05:19:01.173Z,96334.27
2019-05-02T05:21:30.557Z,96328.86
2019-05-02T05:24:18.794Z,96328.14
2019-05-02T05:26:51.280Z,96332.73
2019-05-02T05:29:23.315Z,96338.35
2019-05-02T05:31:55.069Z,96348.38
2019-05-02T05:34:27.451Z,96341.30
2019-05-02T05:36:53.854Z,96341.11
2019-05-02T05:39:23.138Z,96348.47
2019-05-02T05:41:52.555Z,96347.03
2019-05-02T05:44:23.291Z,96347.14
2019-05-02T05:46:53.053Z,96341.83
2019-05-02T05:49:22.429Z,96344.99
2019-05-02T05:51:54.380Z,96345.48
2019-05-02T05:54:22.746Z,96338.56
2019-05-02T05:56:52.446Z,96345.98
2019-05-02T05:59:27.293Z,96343.97
2019-05-02T06:01:53.328Z,96354.41
2019-05-02T06:04:24.040Z,96355.50
2019-05-02T06:06:58.796Z,96343.03
2019-05-02T06:09:26.377Z,96345.98
2019-05-02T06:11:56.680Z,96347.93
2019-05-02T06:14:26.489Z,96349.49
2019-05-02T06:16:55.849Z,96347.45
2019-05-02T06:19:25.355Z,96339.75
2019-05-02T06:21:54.748Z,96339.32
2019-05-02T06:24:24.134Z,96343.13
2019-05-02T06:26:53.623Z,96342.89
2019-05-02T06:29:23.170Z,96344.80
2019-05-02T06:31:52.574Z,96345.33
2019-05-02T06:34:22.104Z,96341.05
2019-05-02T06:36:51.565Z,96336.98
2019-05-02T06:39:21.076Z,96341.79
2019-05-02T06:41:51.983Z,96338.28
2019-05-02T06:44:24.181Z,96348.23
2019-05-02T06:46:52.702Z,96343.64
2019-05-02T06:49:24.179Z,96348.57
2019-05-02T06:51:56.192Z,96349.86
2019-05-02T06:54:24.431Z,96353.11
2019-05-02T06:56:53.874Z,96348.04
2019-05-02T06:59:23.340Z,96352.55
2019-05-02T07:01:57.362Z,96349.61
2019-05-02T07:04:25.063Z,96345.48
2019-05-02T07:06:59.453Z,96334.11
2019-05-02T07:09:39.481Z,96333.78
2019-05-02T07:12:01.245Z,96327.55
2019-05-02T07:14:28.314Z,96330.41
2019-05-02T07:17:11.163Z,96332.29
2019-05-02T07:19:44.089Z,96328.95
2019-05-02T07:22:13.403Z,96328.02
2019-05-02T07:24:42.770Z,96340.09
2019-05-02T07:27:12.483Z,96345.05
2019-05-02T07:29:41.773Z,96339.91
2019-05-02T07:32:11.453Z,96341.33
2019-05-02T07:34:44.328Z,96340.49
2019-05-02T07:37:12.679Z,96336.44
2019-05-02T07:39:43.529Z,96338.08
2019-05-02T07:42:12.899Z,96336.46
2019-05-02T07:44:42.343Z,96333.96
2019-05-02T07:47:11.687Z,96332.45
2019-05-02T07:49:41.091Z,96332.22
2019-05-02T07:52:10.592Z,96334.59
2019-05-02T07:54:39.982Z,96335.94
2019-05-02T07:57:09.397Z,96339.50
2019-05-02T07:59:38.760Z,96330.25
2019-05-02T08:02:08.372Z,96330.33
2019-05-02T08:04:37.701Z,96328.52
2019-05-02T08:07:07.451Z,96325.83
2019-05-02T08:09:39.256Z,96322.09
2019-05-02T08:12:08.305Z,96328.62
2019-05-02T08:14:37.703Z,96315.06
2019-05-02T08:17:16.320Z,96320.94
2019-05-02T08:19:41.785Z,96320.02
2019-05-02T08:22:13.825Z,96324.39
2019-05-02T08:24:40.511Z,96312.23
2019-05-02T08:27:34.760Z,96315.72
2019-05-02T08:30:04.238Z,96322.78
2019-05-02T08:32:33.795Z,96317.05
2019-05-02T08:35:03.059Z,96320.20
2019-05-02T08:37:35.307Z,96321.16
2019-05-02T08:40:05.391Z,96316.10
2019-05-02T08:42:34.824Z,96317.75
2019-05-02T08:45:04.666Z,96313.27
2019-05-02T08:47:34.114Z,96319.47
2019-05-02T08:50:03.521Z,96310.55
2019-05-02T08:52:36.880Z,96308.29
2019-05-02T08:55:09.004Z,96304.56
2019-05-02T08:57:36.310Z,96301.73
2019-05-02T09:00:07.071Z,96297.66
2019-05-02T09:02:41.408Z,96285.42
2019-05-02T09:05:08.203Z,96293.73
2019-05-02T09:07:40.050Z,96294.89
2019-05-02T09:10:09.077Z,96286.41
2019-05-02T09:12:42.236Z,96296.05
2019-05-02T09:15:11.838Z,96292.13
2019-05-02T09:17:46.115Z,96287.92
2019-05-02T09:20:17.848Z,96281.01
2019-05-02T09:22:46.499Z,96273.73
2019-05-02T09:25:15.271Z,96274.47
2019-05-02T09:27:44.713Z,96276.75
2019-05-02T09:30:17.138Z,96281.03
2019-05-02T09:32:45.506Z,96281.19
2019-05-02T09:35:14.909Z,96273.73
2019-05-02T09:37:44.229Z,96286.03
2019-05-02T09:40:16.739Z,96283.96
2019-05-02T09:42:47.496Z,96273.28
2019-05-02T09:45:27.856Z,96269.06
2019-05-02T09:48:04.006Z,96268.73
2019-05-02T09:50:31.197Z,96265.29
2019-05-02T09:52:56.786Z,96259.97
2019-05-02T09:55:26.255Z,96270.81
2019-05-02T09:58:19.483Z,96264.50
2019-05-02T10:01:05.681Z,96270.23
2019-05-02T10:03:35.135Z,96253.19
2019-05-02T10:06:08.302Z,96261.91
2019-05-02T10:08:38.345Z,96258.53
2019-05-02T10:11:07.032Z,96253.59
2019-05-02T10:13:36.376Z,96260.63
2019-05-02T10:16:05.771Z,96249.36
2019-05-02T10:18:35.287Z,96252.43
2019-05-02T10:21:07.829Z,96245.26
2019-05-02T10:23:36.325Z,96243.03
2019-05-02T10:26:05.848Z,96235.58
2019-05-02T10:28:35.182Z,96234.05
2019-05-02T10:31:04.729Z,96225.14
2019-05-02T10:33:37.562Z,96223.91
2019-05-02T10:36:05.435Z,96222.41
2019-05-02T10:38:34.802Z,96224.36
2019-05-02T10:41:04.921Z,96216.11
2019-05-02T10:43:34.159Z,96216.47
2019-05-02T10:46:09.903Z,96211.97
2019-05-02T10:48:44.425Z,96206.13
2019-05-02T10:51:31.642Z,96202.67
2019-05-02T10:54:02.272Z,96197.02
2019-05-02T10:56:32.434Z,96194.25
2019-05-02T10:59:02.326Z,96201.52
2019-05-02T11:01:37.315Z,96198.36
2019-05-02T11:04:08.704Z,96195.70
2019-05-02T11:06:42.702Z,96194.73
2019-05-02T11:09:12.102Z,96197.53
2019-05-02T11:11:42.487Z,96191.29
2019-05-02T11:14:33.741Z,96191.14
2019-05-02T11:17:27.837Z,96187.09
2019-05-02T11:20:02.836Z,96186.81
2019-05-02T11:22:32.334Z,96183.51
2019-05-02T11:25:02.149Z,96180.41
2019-05-02T11:27:32.899Z,96179.36
2019-05-02T11:30:02.803Z,96177.41
2019-05-02T11:32:32.754Z,96180.62
2019-05-02T11:35:02.969Z,96169.56
2019-05-02T11:37:32.934Z,96170.44
2019-05-02T11:40:06.151Z,96161.54
2019-05-02T11:42:33.342Z,96157.16
2019-05-02T11:45:02.859Z,96150.56
2019-05-02T11:47:33.716Z,96158.98
2019-05-02T11:50:02.972Z,96162.05
2019-05-02T11:52:37.178Z,96169.92
2019-05-02T11:55:03.368Z,96164.80
2019-05-02T11:57:33.178Z,96159.30
2019-05-02T12:00:05.093Z,96156.47
2019-05-02T12:02:58.098Z,96144.89
2019-05-02T12:05:35.403Z,96154.90
2019-05-02T12:08:07.754Z,96158.42
2019-05-02T12:10:36.627Z,96161.38
2019-05-02T12:13:06.603Z,96161.69
2019-05-02T12:15:35.364Z,96156.94
2019-05-02T12:18:05.225Z,96146.94
2019-05-02T12:20:36.724Z,96145.08
2019-05-02T12:23:09.017Z,96144.30
2019-05-02T12:25:37.113Z,96145.90
2019-05-02T12:28:07.027Z,96152.13
2019-05-02T12:30:37.855Z,96138.42
2019-05-02T12:33:08.104Z,96143.90
2019-05-02T12:35:37.622Z,96152.35
2019-05-02T12:38:07.024Z,96141.48
2019-05-02T12:40:36.513Z,96132.94
2019-05-02T12:43:05.991Z,96142.61
2019-05-02T12:45:35.374Z,96134.41
2019-05-02T12:48:04.815Z,96133.06
2019-05-02T12:50:34.147Z,96131.86
2019-05-02T12:53:03.491Z,96129.84
2019-05-02T12:55:32.779Z,96134.25
2019-05-02T12:58:03.136Z,96119.45
2019-05-02T13:00:32.741Z,96112.66
2019-05-02T13:03:18.221Z,96109.80
2019-05-02T13:05:47.725Z,96110.62
2019-05-02T13:08:17.060Z,96109.38
2019-05-02T13:11:17.414Z,96107.36
2019-05-02T13:13:46.910Z,96108.80
2019-05-02T13:16:16.345Z,96105.07
2019-05-02T13:18:45.701Z,96100.31
2019-05-02T13:21:20.750Z,96094.12
2019-05-02T13:23:54.632Z,96092.67
2019-05-02T13:26:27.094Z,96088.80
2019-05-02T13:28:54.977Z,96084.27
2019-05-02T13:31:49.078Z,96079.54
2019-05-02T13:34:31.942Z,96080.44
2019-05-02T13:37:02.912Z,96073.31
2019-05-02T13:39:39.342Z,96067.01
2019-05-02T13:42:09.630Z,96075.88
2019-05-02T13:44:45.485Z,96067.31
2019-05-02T13:47:15.412Z,96067.48
2019-05-02T13:49:54.107Z,96064.02
2019-05-02T13:52:15.927Z,96062.61
2019-05-02T13:54:45.473Z,96058.13
2019-05-02T13:57:14.855Z,96057.89
2019-05-02T13:59:44.212Z,96055.13
2019-05-02T14:02:37.327Z,96053.48
2019-05-02T14:05:08.693Z,96051.54
2019-05-02T14:07:38.789Z,96049.42
2019-05-02T14:10:18.788Z,96039.13
2019-05-02T14:12:52.828Z,96040.91
2019-05-02T14:15:24.556Z,96038.52
2019-05-02T14:17:53.997Z,96025.78
2019-05-02T14:20:23.499Z,96031.81
2019-05-02T14:22:52.921Z,96031.81
2019-05-02T14:25:22.523Z,96030.58
2019-05-02T14:27:55.453Z,96023.01
2019-05-02T14:30:36.219Z,96024.47
2019-05-02T14:32:58.256Z,96025.75
2019-05-02T14:35:30.016Z,96024.22
2019-05-02T14:38:09.305Z,96025.02
2019-05-02T14:40:45.345Z,96020.65
2019-05-02T14:43:17.723Z,96009.03
2019-05-02T14:45:51.003Z,96009.45
2019-05-02T14:48:23.616Z,96007.29
2019-05-02T14:50:52.621Z,96011.95
2019-05-02T14:53:25.325Z,96009.31
2019-05-02T14:55:57.589Z,96001.30
2019-05-02T14:58:25.681Z,96007.86
2019-05-02T15:00:56.657Z,96009.38
2019-05-02T15:03:28.453Z,96009.20
2019-05-02T15:05:59.102Z,96007.61
2019-05-02T15:08:28.270Z,96004.77
2019-05-02T15:10:57.727Z,96003.90
2019-05-02T15:13:27.194Z,96003.12
2019-05-02T15:15:56.615Z,96008.34
2019-05-02T15:18:25.902Z,96003.11
2019-05-02T15:20:55.247Z,96000.19
2019-05-02T15:23:24.770Z,96001.98
2019-05-02T15:25:56.060Z,96008.00
2019-05-02T15:28:25.347Z,96000.95
2019-05-02T15:31:05.721Z,96004.44
2019-05-02T15:33:38.919Z,96004.06
2019-05-02T15:36:08.894Z,96003.98
2019-05-02T15:38:45.560Z,96010.20
2019-05-02T15:41:12.617Z,95997.43
2019-05-02T15:43:44.276Z,95997.93
2019-05-02T15:46:17.319Z,95992.68
2019-05-02T15:48:42.799Z,95993.11
2019-05-02T15:51:12.418Z,95987.70
2019-05-02T15:54:04.477Z,95988.12
2019-05-02T15:56:24.372Z,95984.41
2019-05-02T15:58:58.081Z,95982.70
2019-05-02T16:01:36.669Z,95983.94
2019-05-02T16:04:09.146Z,95978.47
2019-05-02T16:06:38.583Z,95977.69
2019-05-02T16:09:08.488Z,95978.58
2019-05-02T16:11:37.995Z,95972.70
2019-05-02T16:14:07.384Z,95972.47
2019-05-02T16:16:41.133Z,95975.20
2019-05-02T16:19:07.840Z,95983.70
2019-05-02T16:21:45.612Z,95977.28
2019-05-02T16:24:22.974Z,95971.45
2019-05-02T16:26:56.609Z,95967.37
2019-05-02T16:29:28.313Z,95970.13
2019-05-02T16:32:14.293Z,95966.91
2019-05-02T16:34:54.841Z,95967.48
2019-05-02T16:37:24.537Z,95968.38
2019-05-02T16:39:54.128Z,95968.96
2019-05-02T16:42:23.645Z,95966.12
2019-05-02T16:44:54.840Z,95959.53
2019-05-02T16:47:24.081Z,95966.42
2019-05-02T16:49:56.396Z,95966.05
2019-05-02T16:52:24.562Z,95964.93
2019-05-02T16:54:54.053Z,95964.70
2019-05-02T16:57:23.848Z,95967.83
2019-05-02T17:00:01.002Z,95969.58
2019-05-02T17:02:24.700Z,95969.87
2019-05-02T17:04:54.584Z,95972.42
2019-05-02T17:07:52.970Z,95972.19
2019-05-02T17:10:29.220Z,95971.05
2019-05-02T17:13:00.304Z,95974.80
2019-05-02T17:15:35.450Z,95977.30
2019-05-02T17:18:12.623Z,95976.81
2019-05-02T17:20:37.174Z,95975.53
2019-05-02T17:23:07.755Z,95977.31
2019-05-02T17:25:37.192Z,95984.53
2019-05-02T17:28:10.263Z,95984.53
2019-05-02T17:30:38.828Z,95985.18
2019-05-02T17:33:14.388Z,95994.61
2019-05-02T17:35:41.668Z,95992.72
2019-05-02T17:38:12.055Z,96005.73
2019-05-02T17:40:42.236Z,96018.98
2019-05-02T17:43:11.948Z,96017.50
2019-05-02T17:45:41.389Z,96018.13
2019-05-02T17:48:16.606Z,96022.87
2019-05-02T17:51:06.655Z,96029.55
2019-05-02T17:53:41.343Z,96033.50
2019-05-02T17:56:07.160Z,96040.69
2019-05-02T17:58:36.537Z,96045.42
2019-05-02T18:01:10.187Z,96045.98
2019-05-02T18:03:39.534Z,96041.44
2019-05-02T18:06:13.213Z,96042.23
2019-05-02T18:08:41.727Z,96055.20
2019-05-02T18:11:12.700Z,96059.09
2019-05-02T18:13:42.402Z,96063.48
2019-05-02T18:16:15.153Z,96065.25
2019-05-02T18:18:46.639Z,96071.10
2019-05-02T18:21:17.271Z,96071.18
2019-05-02T18:23:45.183Z,96072.62
2019-05-02T18:26:14.592Z,96078.94
2019-05-02T18:28:48.936Z,96079.86
2019-05-02T18:31:15.315Z,96073.79
2019-05-02T18:33:44.745Z,96074.41
2019-05-02T18:36:17.293Z,96077.90
2019-05-02T18:38:45.310Z,96076.28
2019-05-02T18:41:16.270Z,96081.52
2019-05-02T18:43:46.362Z,96084.80
2019-05-02T18:46:16.015Z,96081.06
2019-05-02T18:48:48.945Z,96089.34
2019-05-02T18:51:19.001Z,96086.44
2019-05-02T18:53:48.502Z,96084.33
2019-05-02T18:56:18.132Z,96088.25
2019-05-02T18:58:47.937Z,96092.60
2019-05-02T19:01:19.436Z,96088.84
2019-05-02T19:03:52.487Z,96085.34
2019-05-02T19:06:21.887Z,96106.45
2019-05-02T19:08:53.057Z,96092.17
2019-05-02T19:11:26.787Z,96095.44
2019-05-02T19:13:54.095Z,96099.78
2019-05-02T19:16:27.245Z,96106.01
2019-05-02T19:18:57.437Z,96102.42
2019-05-02T19:21:31.256Z,96101.03
2019-05-02T19:23:57.817Z,96107.29
2019-05-02T19:26:29.989Z,96103.03
2019-05-02T19:29:08.316Z,96111.63
2019-05-02T19:31:46.144Z,96107.33
2019-05-02T19:34:16.894Z,96107.37
2019-05-02T19:36:46.503Z,96106.02
2019-05-02T19:39:17.240Z,96113.55
2019-05-02T19:41:46.612Z,96117.23
2019-05-02T19:44:21.365Z,96118.80
2019-05-02T19:46:47.094Z,96123.17
2019-05-02T19:49:16.491Z,96123.70
2019-05-02T19:51:50.557Z,96127.20
2019-05-02T19:54:17.977Z,96132.87
2019-05-02T19:56:47.764Z,96123.54
2019-05-02T19:59:24.626Z,96123.41
2019-05-02T20:01:49.566Z,96123.98
2019-05-02T20:04:19.518Z,96124.24
2019-05-02T20:06:49.705Z,96129.18
2019-05-02T20:09:19.473Z,96124.91
2019-05-02T20:11:48.891Z,96125.48
2019-05-02T20:14:18.542Z,96124.61
2019-05-02T20:16:52.810Z,96133.03
2019-05-02T20:19:26.806Z,96132.55
2019-05-02T20:22:06.606Z,96126.53
2019-05-02T20:25:08.559Z,96130.79
2019-05-02T20:27:37.980Z,96130.28
2019-05-02T20:30:12.011Z,96131.98
2019-05-02T20:32:42.852Z,96138.39
2019-05-02T20:35:13.092Z,96133.11
2019-05-02T20:37:42.510Z,96136.92
2019-05-02T20:40:27.510Z,96134.75
2019-05-02T20:42:56.855Z,96133.94
2019-05-02T20:45:26.627Z,96132.42
2019-05-02T20:47:56.464Z,96137.78
2019-05-02T20:50:26.819Z,96139.14
2019-05-02T20:52:56.479Z,96141.25
2019-05-02T20:55:27.230Z,96138.23
2019-05-02T20:57:57.182Z,96136.63
2019-05-02T21:00:29.406Z,96130.52
2019-05-02T21:02:59.119Z,96130.78
2019-05-02T21:05:35.307Z,96134.28
2019-05-02T21:08:42.571Z,96131.36
2019-05-02T21:11:12.538Z,96125.72
2019-05-02T21:13:42.151Z,96126.25
2019-05-02T21:16:12.534Z,96131.84
2019-05-02T21:18:42.631Z,96131.84
2019-05-02T21:21:12.688Z,96126.20
2019-05-02T21:23:47.318Z,96130.77
2019-05-02T21:26:13.933Z,96135.36
2019-05-02T21:28:46.096Z,96131.09
2019-05-02T21:31:14.869Z,96130.55
2019-05-02T21:33:44.458Z,96125.99
2019-05-02T21:36:13.865Z,96129.72
2019-05-02T21:38:43.246Z,96131.07
2019-05-02T21:41:12.811Z,96130.25
2019-05-02T21:43:42.694Z,96125.72
2019-05-02T21:46:12.702Z,96139.33
2019-05-02T21:48:42.651Z,96136.65
2019-05-02T21:51:38.609Z,96136.89
2019-05-02T21:54:29.958Z,96133.08
2019-05-02T21:57:08.477Z,96134.40
2019-05-02T21:59:38.379Z,96132.04
2019-05-02T22:02:11.895Z,96139.02
2019-05-02T22:04:42.366Z,96140.94
2019-05-02T22:07:12.194Z,96135.80
2019-05-02T22:09:41.759Z,96138.02
2019-05-02T22:12:12.008Z,96136.63
2019-05-02T22:14:42.148Z,96136.89
2019-05-02T22:17:12.720Z,96135.77
2019-05-02T22:19:42.094Z,96136.84
2019-05-02T22:22:12.226Z,96136.94
2019-05-02T22:24:42.132Z,96134.23
2019-05-02T22:27:12.369Z,96140.14
2019-05-02T22:29:43.035Z,96141.50
2019-05-02T22:32:12.433Z,96146.10
2019-05-02T22:34:42.607Z,96144.20
2019-05-02T22:37:14.158Z,96143.38
2019-05-02T22:39:48.972Z,96145.54
2019-05-02T22:42:18.158Z,96145.83
2019-05-02T22:44:47.325Z,96144.95
2019-05-02T22:47:16.534Z,96145.20
2019-05-02T22:49:45.724Z,96145.77
2019-05-02T22:52:14.877Z,96148.23
2019-05-02T22:54:44.037Z,96142.59
2019-05-02T22:57:14.260Z,96141.79
2019-05-02T22:59:43.666Z,96156.00
2019-05-02T23:02:13.124Z,96152.52
2019-05-02T23:04:42.309Z,96154.14
2019-05-02T23:07:12.670Z,96154.67
2019-05-02T23:09:43.666Z,96155.75
2019-05-02T23:12:13.243Z,96157.90
2019-05-02T23:14:42.451Z,96156.80
2019-05-02T23:17:12.725Z,96159.02
2019-05-02T23:19:42.435Z,96158.98
2019-05-02T23:22:12.724Z,96160.06
2019-05-02T23:24:56.134Z,96159.50
2019-05-02T23:27:38.168Z,96160.05
2019-05-02T23:30:11.549Z,96159.27
2019-05-02T23:32:42.373Z,96165.14
2019-05-02T23:35:11.819Z,96161.16
2019-05-02T23:37:42.263Z,96165.45
2019-05-02T23:40:12.474Z,96167.08
2019-05-02T23:42:41.859Z,96168.68
2019-05-02T23:45:12.100Z,96174.06
2019-05-02T23:47:42.193Z,96175.68
2019-05-02T23:50:12.113Z,96175.68
2019-05-02T23:52:41.560Z,96179.71
2019-05-02T23:55:12.188Z,96176.23
2019-05-02T23:57:42.142Z,96181.06
